CYDB

Burwash Airport

Burwash, , Canada
METAR CYDB 191700Z 27006KT 10SM -SN OVC013 M17/M19 A2959 RMK ST8 SLP091
Observed Flight Rules
Jan-19 @ 17:00 UTC (13 minutes ago) Marginal Visual Flight Rules
Wind Visibility Clouds Conditions
270° at 6 knots 10 miles
  • Overcast at 1,300' AGL
  • Light Snow
Temperatures Readings
Current -17°C / 1°F
Dewpoint -19°C / -2°F
Humidity 85%
Altimeter 29.59" Hg
Pressure 1009.1 hPa
Elevation 801
METAR CYDB 191700Z 27006KT 10SM -SN OVC013 M17/M19 A2959 RMK ST8 SLP091
Observed Flight Rules
Jan-19 @ 17:00 UTC
(13 minutes ago)
MVFR
Wind Visibility
270° at 6 knots 10 miles
Clouds
  • Overcast at 1,300' AGL
Conditions
  • Light Snow
Temperature Dewpoint
-17°C / 1°F -19°C / -2°F
Humidity Altimeter Pressure
85% 29.59" Hg 1009.1 hPa